createdAt,value
2022-11-22T07:13:57.304Z,97986.56
2022-11-22T07:16:28.415Z,97998.19
2022-11-22T07:18:55.931Z,98002.28
2022-11-22T07:21:25.547Z,97987.78
2022-11-22T07:23:54.973Z,98001.38
2022-11-22T07:26:24.237Z,97994.66
2022-11-22T07:28:52.730Z,97999.03
2022-11-22T07:31:21.512Z,98008.72
2022-11-22T07:33:49.262Z,97999.31
2022-11-22T07:36:21.650Z,98001.63
2022-11-22T07:38:49.799Z,97999.53
2022-11-22T07:41:18.839Z,98013.94
2022-11-22T07:43:47.140Z,98004.44
2022-11-22T07:46:23.295Z,98002.81
2022-11-22T07:48:51.085Z,98006.16
2022-11-22T07:51:19.923Z,98000.38
2022-11-22T07:53:48.478Z,98000.22
2022-11-22T07:56:16.696Z,98000.50
2022-11-22T07:58:44.628Z,97998.94
2022-11-22T08:01:14.894Z,98004.22
2022-11-22T08:03:43.452Z,98010.44
2022-11-22T08:06:12.497Z,98003.03
2022-11-22T08:08:40.178Z,97996.94
2022-11-22T08:11:08.594Z,97992.28
2022-11-22T08:13:36.466Z,97993.53
2022-11-22T08:16:07.433Z,97983.91
2022-11-22T08:18:35.758Z,97995.16
2022-11-22T08:21:04.100Z,97983.63
2022-11-22T08:23:43.343Z,97991.47
2022-11-22T08:26:13.260Z,97972.66
2022-11-22T08:28:41.954Z,97992.78
2022-11-22T08:31:14.663Z,97985.69
2022-11-22T08:33:42.457Z,97991.56
2022-11-22T08:36:10.492Z,97999.81
2022-11-22T08:38:38.245Z,98001.41
2022-11-22T08:41:06.707Z,98000.22
2022-11-22T08:43:34.678Z,97989.56
2022-11-22T08:46:03.016Z,97990.03
2022-11-22T08:48:32.770Z,97989.88
2022-11-22T08:51:02.878Z,97987.84
2022-11-22T08:53:32.479Z,97992.91
2022-11-22T08:56:01.593Z,97974.38
2022-11-22T08:58:31.130Z,97992.56
2022-11-22T09:01:08.182Z,97988.88
2022-11-22T09:03:36.347Z,97974.34
2022-11-22T09:09:03.263Z,97966.34
2022-11-22T09:11:36.528Z,97963.88
2022-11-22T09:14:04.001Z,97964.66
2022-11-22T09:16:31.522Z,97976.63
2022-11-22T09:18:59.439Z,97983.75
2022-11-22T09:21:27.011Z,97972.53
2022-11-22T09:23:54.682Z,97969.31
2022-11-22T09:26:25.166Z,97962.72
2022-11-22T09:28:55.474Z,97975.69
2022-11-22T09:31:23.542Z,97973.28
2022-11-22T09:33:51.039Z,97950.75
2022-11-22T09:36:21.783Z,97958.72
2022-11-22T09:38:50.720Z,97951.34
2022-11-22T09:41:42.896Z,97956.91
2022-11-22T09:44:35.929Z,97967.88
2022-11-22T09:47:18.667Z,97941.56
2022-11-22T09:49:55.457Z,97930.97
2022-11-22T09:52:30.201Z,97952.91
2022-11-22T09:55:02.143Z,97935.34
2022-11-22T09:57:42.729Z,97924.50
2022-11-22T10:00:31.308Z,97922.91
2022-11-22T10:03:24.666Z,97920.28
2022-11-22T10:05:54.374Z,97917.03
2022-11-22T10:08:59.039Z,97910.75
2022-11-22T10:11:43.176Z,97911.25
2022-11-22T10:14:29.988Z,97905.56
2022-11-22T10:17:35.196Z,97937.25
2022-11-22T10:20:05.959Z,97908.75
2022-11-22T10:22:35.274Z,97889.50
2022-11-22T10:25:10.290Z,97913.94
2022-11-22T10:27:41.224Z,97909.56
2022-11-22T10:30:20.879Z,97893.25
2022-11-22T10:32:55.152Z,97903.13
2022-11-22T10:35:30.695Z,97899.09
2022-11-22T10:38:03.554Z,97890.75
2022-11-22T10:40:51.114Z,97893.22
2022-11-22T10:43:39.983Z,97892.94
2022-11-22T10:46:32.007Z,97868.06
2022-11-22T10:49:12.877Z,97871.72
2022-11-22T10:52:27.935Z,97855.47
2022-11-22T10:55:23.080Z,97854.97
2022-11-22T10:57:56.315Z,97854.06
2022-11-22T11:00:26.120Z,97850.72
2022-11-22T11:02:56.446Z,97821.78
2022-11-22T11:05:33.203Z,97876.03
2022-11-22T11:08:22.015Z,97825.56
2022-11-22T11:10:49.154Z,97859.69
2022-11-22T11:13:29.177Z,97861.72
2022-11-22T11:15:59.475Z,97815.44
2022-11-22T11:18:32.734Z,97799.59
2022-11-22T11:21:00.270Z,97834.00
2022-11-22T11:23:27.834Z,97815.16
2022-11-22T11:25:55.304Z,97820.44
2022-11-22T11:28:24.095Z,97816.53
2022-11-22T11:30:58.737Z,97816.44
2022-11-22T11:33:35.267Z,97805.75
2022-11-22T11:36:04.742Z,97805.03
2022-11-22T11:38:54.070Z,97801.81
2022-11-22T11:41:37.513Z,97799.91
2022-11-22T11:44:29.454Z,97791.78
2022-11-22T11:46:58.359Z,97795.25
2022-11-22T11:49:31.407Z,97794.41
2022-11-22T11:52:03.641Z,97786.88
2022-11-22T11:54:48.197Z,97781.91
2022-11-22T11:57:20.124Z,97777.50
2022-11-22T11:59:51.239Z,97786.59
2022-11-22T12:02:26.878Z,97779.47
2022-11-22T12:05:14.002Z,97773.31
2022-11-22T12:07:46.273Z,97776.84
2022-11-22T12:10:38.928Z,97757.53
2022-11-22T12:13:27.431Z,97755.34
2022-11-22T12:16:22.287Z,97753.69
2022-11-22T12:19:14.040Z,97760.13
2022-11-22T12:21:58.945Z,97747.44
2022-11-22T12:24:52.346Z,97736.97
2022-11-22T12:27:23.375Z,97733.19
2022-11-22T12:29:52.999Z,97723.91
2022-11-22T12:32:45.589Z,97725.34
2022-11-22T12:35:19.891Z,97718.66
2022-11-22T12:38:14.214Z,97719.28
2022-11-22T12:40:45.888Z,97714.91
2022-11-22T12:43:24.520Z,97707.16
2022-11-22T12:46:16.753Z,97697.56
2022-11-22T12:48:49.678Z,97704.91
2022-11-22T12:51:54.037Z,97702.75
2022-11-22T12:54:38.041Z,97694.81
2022-11-22T12:57:23.041Z,97694.31
2022-11-22T13:00:02.760Z,97690.31
2022-11-22T13:02:53.268Z,97689.78
2022-11-22T13:05:29.006Z,97688.09
2022-11-22T13:08:05.824Z,97682.66
2022-11-22T13:10:51.849Z,97675.09
2022-11-22T13:13:23.766Z,97680.78
2022-11-22T13:15:53.130Z,97687.97
2022-11-22T13:18:26.075Z,97690.69
2022-11-22T13:21:14.442Z,97690.50
2022-11-22T13:24:00.676Z,97703.47
2022-11-22T13:27:03.417Z,97697.47
2022-11-22T13:29:33.639Z,97696.75
2022-11-22T13:32:05.678Z,97694.22
2022-11-22T13:34:36.332Z,97692.09
2022-11-22T13:37:13.466Z,97690.59
2022-11-22T13:39:50.658Z,97701.19
